Strona główna
METAR-TAF:

METAR-TAF

Lotnisko :

William H. Morse State Airport

Bennington, Vermont, Stany Zjednoczone

Szerokość geograficzna: 42-53-24N, Długość geograficzna: 073-14-47W, wysokość: 252 m

Aktualna obserwacja pogody

Raport powstał 13 minut temu, godzina 08:54 UTC
Wiatr 11 kt od zachód w porywach dochodzący do 21 kt, zmienny między południowy zachód i północny zachód
Temperatura 3°C
Wilgotność 70%
Ciśnienie 995 hPa
Widzialność: 14.5 km
Zachmurzenie całkowite na wysokości 2700 ft
słaby śnieg

METAR: KDDH 150854Z AUTO 27011G21KT 230V320 9SM -SN OVC027 03/M02 A2938 RMK AO2 SLP951 P0000 60000 T00331017 51035

czas: 04:07 (09:07 UTC)


TAF: brakujący

Obserwacja i prognoza pogody dla ponad 4000 lotnisk (raport METAR i TAF).

Dostępne stacje oznaczono żółtymi i czerwonymi punktami na mapie.

Najedź kursorem aby zobaczyć nazwę stacji.

Kliknij aby zobaczyć obserwacje i prognozy pogody.

Aby zmienić mapę: kliknij na zielony przycisk z czarnym krzyżykiem, aby powiększyć; na zielony przycisk z myślnikiem, aby pomniejszyć; na zielone strzałki, aby przejść do map sąsiednich.


METAR-TAF: